Time;durP1;ratioP1;P1;durP2;ratioP2;P2;SDS_P1;SDS_P2;PMS_P1;PMS_P2;Temp;Humidity;BMP_temperature;BMP_pressure;BME280_temperature;BME280_humidity;BME280_pressure;Samples;Min_cycle;Max_cycle;Signal;HPM_P1;HPM_P2
2023/05/03 00:02:12;;;;;;;7.40;6.70;;;11.00;99.90;;;;;;5057800;28;20223;-45
2023/05/03 00:04:40;;;;;;;7.30;6.00;;;10.80;99.90;;;;;;5057759;28;20182;-44
2023/05/03 00:07:06;;;;;;;7.77;6.40;;;10.60;1.00;;;;;;5057610;28;20477;-45
2023/05/03 00:09:34;;;;;;;8.17;6.43;;;10.50;1.00;;;;;;5057738;28;20442;-46
2023/05/03 00:12:00;;;;;;;7.77;6.83;;;10.40;99.90;;;;;;5057558;28;20419;-43
2023/05/03 00:14:27;;;;;;;6.70;6.10;;;10.20;99.90;;;;;;5057268;28;20412;-45
2023/05/03 00:16:52;;;;;;;8.83;6.77;;;10.20;1.00;;;;;;5057251;28;20408;-46
2023/05/03 00:19:18;;;;;;;5.83;5.23;;;10.10;1.00;;;;;;5057452;28;20794;-47
2023/05/03 00:21:45;;;;;;;8.13;6.60;;;10.10;1.00;;;;;;5056414;28;20227;-43
2023/05/03 00:24:10;;;;;;;7.93;6.60;;;10.10;1.00;;;;;;5057540;28;20460;-45
2023/05/03 00:26:36;;;;;;;7.57;6.87;;;10.00;1.00;;;;;;5057607;28;20876;-44
2023/05/03 00:29:02;;;;;;;8.20;7.10;;;9.90;1.00;;;;;;5057527;28;20225;-45
2023/05/03 00:31:27;;;;;;;7.60;6.90;;;9.80;1.00;;;;;;5056901;28;20572;-51
2023/05/03 00:33:53;;;;;;;8.97;6.97;;;9.80;1.00;;;;;;5058154;28;20220;-44
2023/05/03 00:36:19;;;;;;;7.20;6.40;;;9.80;1.00;;;;;;5057445;28;20181;-46
2023/05/03 00:38:44;;;;;;;7.57;5.90;;;9.80;2.30;;;;;;5057595;28;20185;-47
2023/05/03 00:41:11;;;;;;;8.47;7.07;;;9.70;27.30;;;;;;5057031;28;20189;-46
2023/05/03 00:43:37;;;;;;;7.90;6.50;;;9.70;99.70;;;;;;5056836;28;20201;-45
2023/05/03 00:46:05;;;;;;;7.30;6.60;;;9.70;99.90;;;;;;5055696;28;20988;-44
2023/05/03 00:48:32;;;;;;;7.27;6.57;;;9.60;99.90;;;;;;5056768;28;20503;-44
2023/05/03 00:50:59;;;;;;;7.83;7.03;;;9.60;99.90;;;;;;5056012;28;20436;-45
2023/05/03 00:53:26;;;;;;;8.07;6.87;;;9.60;99.90;;;;;;5057449;28;20668;-46
2023/05/03 00:55:52;;;;;;;8.83;6.50;;;9.60;99.90;;;;;;5056610;28;20471;-45
2023/05/03 00:58:19;;;;;;;7.80;7.00;;;9.50;99.90;;;;;;5056744;28;20515;-45
2023/05/03 01:00:47;;;;;;;9.33;7.10;;;9.50;99.90;;;;;;5056440;28;20436;-46
2023/05/03 01:03:12;;;;;;;7.70;6.90;;;9.50;99.90;;;;;;5056177;28;20464;-46
2023/05/03 01:05:47;;;;;;;7.80;6.40;;;9.50;99.90;;;;;;5057763;28;20447;-44
2023/05/03 01:08:27;;;;;;;7.20;6.50;;;9.40;99.90;;;;;;5056871;28;20184;-44
2023/05/03 01:11:17;;;;;;;7.97;7.17;;;9.40;99.90;;;;;;5039698;28;20436;-44
2023/05/03 01:13:55;;;;;;;8.77;7.87;;;9.30;99.90;;;;;;5056559;28;20427;-45
2023/05/03 01:16:39;;;;;;;8.07;6.67;;;9.30;99.90;;;;;;5057572;28;20526;-46
2023/05/03 01:19:17;;;;;;;8.10;7.30;;;9.10;99.90;;;;;;5055918;28;20714;-46
2023/05/03 01:21:46;;;;;;;7.30;6.37;;;9.10;1.00;;;;;;5057058;28;20459;-46
2023/05/03 01:24:18;;;;;;;6.97;6.10;;;9.10;1.00;;;;;;5057279;28;20506;-45
2023/05/03 01:26:43;;;;;;;7.70;6.90;;;9.10;1.00;;;;;;5056477;28;20420;-44
2023/05/03 01:29:09;;;;;;;7.80;7.00;;;9.10;1.00;;;;;;5057132;28;20746;-45
2023/05/03 01:31:45;;;;;;;9.13;7.17;;;9.00;1.00;;;;;;5057465;28;20178;-44
2023/05/03 01:34:16;;;;;;;8.27;7.40;;;9.00;1.00;;;;;;5056339;28;20420;-45
2023/05/03 01:36:43;;;;;;;8.40;7.60;;;9.00;1.00;;;;;;5057477;28;20589;-47
2023/05/03 01:39:16;;;;;;;7.53;6.53;;;8.90;1.00;;;;;;5056711;28;20419;-44
2023/05/03 01:41:42;;;;;;;8.37;7.13;;;8.80;1.00;;;;;;5057447;28;20424;-44
2023/05/03 01:44:09;;;;;;;7.70;6.90;;;8.80;1.00;;;;;;5057199;28;20524;-43
2023/05/03 01:46:41;;;;;;;7.90;6.80;;;8.80;1.00;;;;;;5056037;28;20456;-45
2023/05/03 01:49:08;;;;;;;8.07;7.27;;;8.70;1.00;;;;;;5056040;28;20546;-45
2023/05/03 01:51:33;;;;;;;7.73;7.03;;;8.70;1.00;;;;;;5056977;28;20451;-43
2023/05/03 01:53:59;;;;;;;10.60;8.00;;;8.70;1.00;;;;;;5057094;28;20416;-45
2023/05/03 01:56:25;;;;;;;11.00;7.50;;;8.60;1.00;;;;;;5057661;28;20186;-45
2023/05/03 01:58:51;;;;;;;8.80;7.17;;;8.60;1.00;;;;;;5059885;28;20636;-45
2023/05/03 02:01:16;;;;;;;11.70;7.77;;;8.60;1.00;;;;;;5061090;28;20182;-45
2023/05/03 02:03:42;;;;;;;10.60;7.70;;;8.60;1.00;;;;;;5061368;28;20296;-45
2023/05/03 02:06:08;;;;;;;9.93;7.90;;;8.50;1.00;;;;;;5061453;28;20181;-45
2023/05/03 02:08:33;;;;;;;8.73;7.90;;;8.60;1.00;;;;;;5060840;28;20182;-44
2023/05/03 02:10:59;;;;;;;8.00;7.20;;;8.50;1.00;;;;;;5061147;28;20192;-49
2023/05/03 02:13:25;;;;;;;9.33;7.93;;;8.50;1.00;;;;;;5061195;28;20178;-48
2023/05/03 02:15:51;;;;;;;11.70;7.60;;;8.50;1.00;;;;;;5061167;28;20216;-46
2023/05/03 02:18:17;;;;;;;9.53;8.43;;;8.40;1.00;;;;;;5061162;28;20532;-46
2023/05/03 02:20:46;;;;;;;10.43;8.13;;;8.40;1.00;;;;;;5059687;28;20355;-47
2023/05/03 02:23:12;;;;;;;9.10;7.83;;;8.40;1.00;;;;;;5060030;28;20466;-44
2023/05/03 02:25:38;;;;;;;10.17;8.33;;;8.40;1.00;;;;;;5060976;28;20428;-46
2023/05/03 02:28:04;;;;;;;10.80;7.73;;;8.30;3.10;;;;;;5060481;28;20570;-45
2023/05/03 02:30:29;;;;;;;9.83;8.77;;;8.30;1.00;;;;;;5060085;28;20522;-44
2023/05/03 02:32:55;;;;;;;11.20;8.23;;;8.30;1.00;;;;;;5060365;28;20570;-45
2023/05/03 02:35:21;;;;;;;9.63;7.70;;;8.30;1.00;;;;;;5060808;28;20192;-45
2023/05/03 02:37:48;;;;;;;10.40;8.40;;;8.30;1.00;;;;;;5061162;28;20543;-44
2023/05/03 02:40:14;;;;;;;10.40;8.27;;;8.30;1.00;;;;;;5060321;28;20424;-44
2023/05/03 02:42:39;;;;;;;8.17;7.13;;;8.20;1.00;;;;;;5060807;28;20270;-45
2023/05/03 02:45:06;;;;;;;9.37;7.43;;;8.20;1.00;;;;;;5060258;28;20435;-44
2023/05/03 02:47:31;;;;;;;7.73;6.50;;;8.10;1.00;;;;;;5060685;28;20185;-46
2023/05/03 02:49:57;;;;;;;8.20;7.40;;;8.10;1.00;;;;;;5060191;28;20432;-45
2023/05/03 02:52:23;;;;;;;8.10;7.30;;;8.00;1.00;;;;;;5059987;28;20678;-44
2023/05/03 02:54:49;;;;;;;9.73;7.30;;;8.00;1.00;;;;;;5060350;28;20280;-45
2023/05/03 02:57:15;;;;;;;7.80;7.00;;;8.00;1.00;;;;;;5060382;28;20174;-44
2023/05/03 02:59:40;;;;;;;9.10;8.20;;;7.90;1.00;;;;;;5059430;28;20435;-45
2023/05/03 03:02:06;;;;;;;11.63;7.90;;;7.90;1.00;;;;;;5059453;28;20424;-45
2023/05/03 03:04:32;;;;;;;8.67;7.77;;;7.80;1.00;;;;;;5059715;28;20292;-45
2023/05/03 03:06:57;;;;;;;9.33;8.00;;;7.80;1.00;;;;;;5059628;28;20417;-45
2023/05/03 03:09:23;;;;;;;9.03;8.20;;;7.80;1.00;;;;;;5059089;28;20174;-44
2023/05/03 03:11:51;;;;;;;10.93;8.23;;;7.70;1.00;;;;;;5059312;28;20193;-46
2023/05/03 03:14:16;;;;;;;9.87;8.07;;;7.70;1.00;;;;;;5058608;28;20636;-45
2023/05/03 03:16:43;;;;;;;8.50;7.30;;;7.70;1.00;;;;;;5059892;28;20424;-45
2023/05/03 03:19:09;;;;;;;10.50;7.80;;;7.60;1.00;;;;;;5059937;28;20228;-45
2023/05/03 03:21:35;;;;;;;9.53;8.13;;;7.60;12.90;;;;;;5058901;28;20455;-46
2023/05/03 03:24:04;;;;;;;9.37;7.03;;;7.60;13.90;;;;;;5059037;28;20239;-44
2023/05/03 03:26:30;;;;;;;8.73;7.60;;;7.60;4.50;;;;;;5058441;28;20456;-43
2023/05/03 03:28:56;;;;;;;8.30;7.30;;;7.60;7.50;;;;;;5058866;28;20634;-46
2023/05/03 03:31:22;;;;;;;10.50;8.60;;;7.50;29.40;;;;;;5058763;28;20190;-45
2023/05/03 03:33:48;;;;;;;8.83;7.93;;;7.50;29.60;;;;;;5057219;28;20184;-46
2023/05/03 03:36:14;;;;;;;8.40;7.50;;;7.50;25.40;;;;;;5059626;28;20822;-47
2023/05/03 03:38:40;;;;;;;9.03;8.00;;;7.50;28.10;;;;;;5058777;28;20412;-46
2023/05/03 03:41:06;;;;;;;9.00;8.10;;;7.50;28.90;;;;;;5058461;28;20228;-44
2023/05/03 03:43:32;;;;;;;10.77;9.67;;;7.50;24.70;;;;;;5057712;28;20869;-44
2023/05/03 03:45:57;;;;;;;10.03;8.23;;;7.40;25.60;;;;;;5055390;28;20432;-44
2023/05/03 03:48:23;;;;;;;8.70;7.83;;;7.40;26.50;;;;;;5056792;28;20553;-43
2023/05/03 03:50:49;;;;;;;15.00;9.13;;;7.40;18.60;;;;;;5057217;28;20257;-45
2023/05/03 03:53:15;;;;;;;9.20;8.30;;;7.40;2.00;;;;;;5057627;28;20185;-46
2023/05/03 03:55:40;;;;;;;11.27;7.87;;;7.40;1.00;;;;;;5056326;28;20465;-45
2023/05/03 03:58:06;;;;;;;10.87;9.03;;;7.40;1.00;;;;;;5058048;28;20444;-45
2023/05/03 04:00:33;;;;;;;11.50;9.87;;;7.30;1.30;;;;;;5057554;28;20304;-44
2023/05/03 04:02:59;;;;;;;12.73;9.63;;;7.30;26.40;;;;;;5055944;28;20224;-45
2023/05/03 04:05:24;;;;;;;9.40;8.40;;;7.30;64.90;;;;;;5059144;28;20432;-45
2023/05/03 04:07:50;;;;;;;11.80;10.57;;;7.30;99.90;;;;;;5058709;28;20178;-46
2023/05/03 04:10:16;;;;;;;12.40;9.80;;;7.20;99.90;;;;;;5058026;28;20170;-45
2023/05/03 04:12:41;;;;;;;12.50;11.17;;;7.20;99.90;;;;;;5058312;28;20217;-44
2023/05/03 04:15:08;;;;;;;11.50;10.03;;;7.30;99.90;;;;;;5058352;28;20209;-45
2023/05/03 04:17:34;;;;;;;12.87;11.30;;;7.30;99.90;;;;;;5057788;28;20194;-45
2023/05/03 04:20:05;;;;;;;16.87;10.60;;;7.40;99.90;;;;;;5056087;28;20491;-44
2023/05/03 04:22:31;;;;;;;14.13;10.93;;;7.40;99.90;;;;;;5053827;28;20547;-44
2023/05/03 04:24:59;;;;;;;14.90;11.43;;;7.50;99.90;;;;;;5054511;28;20750;-44
2023/05/03 04:27:25;;;;;;;14.57;10.90;;;7.50;99.90;;;;;;5053793;28;20202;-44
2023/05/03 04:29:51;;;;;;;15.47;10.30;;;7.50;99.90;;;;;;5054721;28;20568;-44
2023/05/03 04:32:22;;;;;;;14.07;10.80;;;7.50;99.90;;;;;;5054051;28;20635;-45
2023/05/03 04:34:49;;;;;;;12.50;10.20;;;7.60;99.90;;;;;;5054816;28;20272;-44
2023/05/03 04:37:15;;;;;;;12.30;10.67;;;7.70;99.90;;;;;;5055192;28;20423;-46
2023/05/03 04:39:40;;;;;;;13.30;10.70;;;7.70;99.90;;;;;;5054799;28;20420;-44
2023/05/03 04:42:07;;;;;;;14.27;10.10;;;7.80;99.90;;;;;;5055279;28;20489;-46
2023/05/03 04:44:33;;;;;;;15.97;11.07;;;7.80;99.90;;;;;;5055399;28;20201;-45
2023/05/03 04:46:59;;;;;;;12.87;11.33;;;7.90;99.90;;;;;;5055234;28;20427;-46
2023/05/03 04:49:24;;;;;;;17.00;12.57;;;8.00;99.90;;;;;;5055291;28;20243;-47
2023/05/03 04:51:50;;;;;;;14.20;11.07;;;8.00;99.90;;;;;;5055714;28;20174;-46
2023/05/03 04:54:16;;;;;;;12.10;10.70;;;8.10;99.90;;;;;;5054191;28;20177;-43
2023/05/03 04:56:41;;;;;;;13.80;11.67;;;8.20;99.90;;;;;;5054004;28;20273;-48
2023/05/03 04:59:07;;;;;;;13.80;10.90;;;8.30;99.90;;;;;;5053172;28;20174;-45
2023/05/03 05:01:33;;;;;;;12.33;10.57;;;8.40;99.90;;;;;;5054228;28;20178;-45
2023/05/03 05:03:59;;;;;;;16.00;11.27;;;8.40;99.90;;;;;;5054635;28;20462;-45
2023/05/03 05:06:24;;;;;;;17.27;12.27;;;8.50;99.90;;;;;;5052883;28;20182;-45
2023/05/03 05:08:50;;;;;;;14.63;11.43;;;8.60;99.90;;;;;;5053956;28;20174;-44
2023/05/03 05:11:16;;;;;;;17.53;12.70;;;8.60;99.90;;;;;;5054609;28;20189;-45
2023/05/03 05:13:42;;;;;;;14.43;11.00;;;8.70;99.90;;;;;;5055229;28;20188;-44
2023/05/03 05:16:07;;;;;;;14.50;12.03;;;8.70;99.90;;;;;;5054877;28;20528;-45
2023/05/03 05:18:33;;;;;;;17.90;12.53;;;8.80;99.90;;;;;;5055733;28;20278;-45
2023/05/03 05:20:59;;;;;;;15.20;12.33;;;8.80;99.90;;;;;;5054162;28;20435;-44
2023/05/03 05:23:26;;;;;;;16.30;12.60;;;8.90;99.90;;;;;;5051579;28;20503;-45
2023/05/03 05:25:52;;;;;;;13.50;12.10;;;9.00;96.70;;;;;;5049793;28;20276;-46
2023/05/03 05:28:19;;;;;;;12.77;11.03;;;9.00;85.90;;;;;;5055199;28;20483;-45
2023/05/03 05:30:46;;;;;;;12.47;11.13;;;9.10;57.50;;;;;;5052301;28;20531;-45
2023/05/03 05:33:11;;;;;;;15.33;11.80;;;9.10;84.50;;;;;;5051927;28;20524;-47
2023/05/03 05:35:37;;;;;;;17.23;12.83;;;9.20;97.20;;;;;;5051913;28;20436;-44
2023/05/03 05:38:03;;;;;;;13.33;11.33;;;9.30;66.50;;;;;;5052689;28;20181;-43
2023/05/03 05:40:28;;;;;;;15.00;12.20;;;9.40;28.00;;;;;;5052801;28;20216;-44
2023/05/03 05:42:54;;;;;;;16.30;12.60;;;9.50;1.00;;;;;;5052093;28;20209;-45
2023/05/03 05:45:20;;;;;;;14.93;12.20;;;9.60;1.00;;;;;;5049767;28;20189;-44
2023/05/03 05:47:47;;;;;;;17.00;11.70;;;9.60;1.00;;;;;;5051132;28;20540;-44
2023/05/03 05:50:12;;;;;;;16.77;12.27;;;9.80;1.00;;;;;;5045228;28;20178;-44
2023/05/03 05:52:38;;;;;;;16.33;12.80;;;9.90;1.00;;;;;;5049300;28;20428;-46
2023/05/03 05:55:05;;;;;;;15.17;11.93;;;10.00;1.00;;;;;;5032917;28;20183;-45
2023/05/03 05:57:31;;;;;;;13.70;12.33;;;10.10;1.00;;;;;;5033661;28;20521;-45
2023/05/03 05:59:57;;;;;;;12.80;10.93;;;10.20;99.90;;;;;;5031908;28;20443;-46
2023/05/03 06:02:23;;;;;;;13.50;12.07;;;10.30;99.90;;;;;;5030984;28;20300;-44
2023/05/03 06:04:49;;;;;;;15.67;13.70;;;10.40;99.90;;;;;;5039594;28;20587;-45
2023/05/03 06:07:16;;;;;;;15.73;13.30;;;10.50;11.30;;;;;;5049394;28;20443;-44
2023/05/03 06:09:42;;;;;;;14.17;12.60;;;10.40;26.90;;;;;;5050423;28;20713;-46
2023/05/03 06:12:09;;;;;;;15.57;13.77;;;10.40;99.90;;;;;;5049617;28;20416;-44
2023/05/03 06:14:35;;;;;;;15.67;13.60;;;10.30;99.90;;;;;;5050298;28;20424;-45
2023/05/03 06:17:00;;;;;;;13.83;12.17;;;10.40;99.90;;;;;;5050745;28;20858;-44
2023/05/03 06:19:27;;;;;;;16.20;14.60;;;10.40;99.90;;;;;;5050162;28;20174;-46
2023/05/03 06:21:53;;;;;;;15.57;13.93;;;10.50;99.90;;;;;;5050776;28;20899;-44
2023/05/03 06:24:19;;;;;;;14.30;12.80;;;10.60;16.70;;;;;;5051482;28;20460;-45
2023/05/03 06:26:46;;;;;;;15.63;12.67;;;10.70;1.00;;;;;;5051085;28;20177;-44
2023/05/03 06:29:12;;;;;;;15.10;13.27;;;10.70;99.90;;;;;;5050561;28;20980;-43
2023/05/03 06:31:40;;;;;;;13.30;12.00;;;10.70;99.90;;;;;;5052204;28;20578;-45
2023/05/03 06:34:06;;;;;;;13.93;12.53;;;10.70;1.00;;;;;;5052846;28;20695;-43
2023/05/03 06:36:32;;;;;;;13.57;12.10;;;11.00;1.00;;;;;;5053938;28;20589;-44
2023/05/03 06:38:57;;;;;;;14.63;12.10;;;11.10;99.90;;;;;;5051977;28;20596;-45
2023/05/03 06:41:23;;;;;;;16.27;13.30;;;11.20;99.90;;;;;;5052953;28;20178;-47
2023/05/03 06:43:49;;;;;;;18.03;13.20;;;11.40;99.90;;;;;;5051185;28;20217;-45
2023/05/03 06:46:15;;;;;;;16.40;13.47;;;11.60;1.00;;;;;;5055755;28;20173;-43
2023/05/03 06:48:41;;;;;;;16.20;12.93;;;11.60;99.90;;;;;;5056315;28;20195;-44
2023/05/03 06:51:06;;;;;;;13.60;12.03;;;11.70;99.90;;;;;;5056662;28;20515;-44
2023/05/03 06:53:32;;;;;;;15.27;13.67;;;11.90;22.30;;;;;;5054542;28;20189;-45
2023/05/03 06:55:58;;;;;;;13.77;12.33;;;11.90;99.90;;;;;;5055489;28;20181;-44
2023/05/03 06:58:23;;;;;;;14.47;12.97;;;12.00;99.90;;;;;;5056119;28;20280;-44
2023/05/03 07:00:53;;;;;;;14.07;12.37;;;12.20;1.00;;;;;;5056304;28;20246;-44
2023/05/03 07:03:19;;;;;;;15.57;12.53;;;12.40;99.90;;;;;;5054542;28;20308;-47
2023/05/03 07:05:45;;;;;;;12.30;11.10;;;12.40;1.00;;;;;;5055779;28;20971;-44
2023/05/03 07:08:11;;;;;;;15.30;13.70;;;12.50;99.90;;;;;;5054492;28;20440;-44
2023/05/03 07:10:37;;;;;;;37.83;16.77;;;12.60;99.90;;;;;;5054284;28;20429;-46
2023/05/03 07:13:03;;;;;;;21.60;14.73;;;12.70;1.00;;;;;;5055011;28;20185;-47
2023/05/03 07:15:29;;;;;;;15.23;13.00;;;12.70;99.90;;;;;;5053936;28;20841;-47
2023/05/03 07:17:55;;;;;;;15.07;12.60;;;12.80;99.90;;;;;;5036963;28;20727;-45
2023/05/03 07:20:21;;;;;;;16.43;13.90;;;12.90;1.00;;;;;;5052406;28;20663;-45
2023/05/03 07:22:47;;;;;;;11.50;8.17;;;13.10;1.00;;;;;;5051275;28;20514;-48
2023/05/03 07:25:15;;;;;;;12.03;10.83;;;13.50;96.30;;;;;;5050801;28;20637;-47
2023/05/03 07:27:40;;;;;;;12.63;9.50;;;14.00;99.90;;;;;;5051171;28;20178;-55
2023/05/03 07:30:07;;;;;;;12.17;10.90;;;14.60;99.90;;;;;;5051568;28;20476;-47
2023/05/03 07:32:32;;;;;;;13.17;11.80;;;14.80;99.90;;;;;;5034498;28;20189;-48
2023/05/03 07:34:58;;;;;;;11.70;10.60;;;14.80;1.00;;;;;;5051146;28;20420;-46
2023/05/03 07:37:25;;;;;;;13.10;11.80;;;14.80;17.00;;;;;;5051853;28;20182;-45
2023/05/03 07:39:51;;;;;;;10.80;9.80;;;14.90;99.90;;;;;;5051148;28;20268;-45
2023/05/03 07:42:17;;;;;;;10.93;9.10;;;15.10;99.90;;;;;;5052243;28;20586;-45
2023/05/03 07:44:43;;;;;;;8.63;7.83;;;15.40;99.90;;;;;;5051983;28;20197;-47
2023/05/03 07:47:09;;;;;;;11.87;8.70;;;15.80;99.90;;;;;;5051772;28;20431;-46
2023/05/03 07:49:36;;;;;;;8.40;7.43;;;16.20;39.10;;;;;;5049717;28;20157;-48
2023/05/03 07:52:02;;;;;;;8.00;7.30;;;16.80;1.00;;;;;;5052500;28;20769;-47
2023/05/03 07:54:28;;;;;;;11.67;10.27;;;17.30;1.00;;;;;;5052200;28;20895;-46
2023/05/03 07:56:54;;;;;;;11.73;10.60;;;17.80;99.90;;;;;;5054366;28;20197;-47
2023/05/03 07:59:19;;;;;;;12.30;11.00;;;17.70;27.60;;;;;;5052614;28;20174;-45
2023/05/03 08:01:45;;;;;;;13.23;12.03;;;17.60;9.90;;;;;;5052751;28;20459;-48
2023/05/03 08:04:11;;;;;;;14.67;13.17;;;17.00;1.00;;;;;;5054212;28;20212;-50
2023/05/03 08:06:37;;;;;;;15.23;13.07;;;16.50;10.50;;;;;;5053278;28;20209;-47
2023/05/03 08:09:03;;;;;;;15.27;13.53;;;15.90;35.90;;;;;;5053414;28;20459;-45
2023/05/03 08:11:29;;;;;;;14.13;12.83;;;15.60;93.50;;;;;;5053759;28;20844;-44
2023/05/03 08:13:55;;;;;;;13.40;12.10;;;15.50;99.90;;;;;;5052631;28;20499;-44
2023/05/03 08:16:21;;;;;;;15.17;13.77;;;15.50;99.90;;;;;;5055359;28;20927;-44
2023/05/03 08:18:46;;;;;;;13.43;12.23;;;15.50;99.90;;;;;;5056015;28;20420;-45
2023/05/03 08:21:13;;;;;;;14.27;12.77;;;15.70;99.90;;;;;;5055890;28;20180;-44
2023/05/03 08:23:39;;;;;;;14.67;13.10;;;15.90;99.90;;;;;;5054998;28;20218;-45
2023/05/03 08:26:08;;;;;;;17.10;12.30;;;16.00;99.90;;;;;;5054564;28;20427;-47
2023/05/03 08:28:34;;;;;;;13.17;11.87;;;16.00;99.90;;;;;;5053489;28;20230;-44
2023/05/03 08:31:02;;;;;;;13.43;12.10;;;15.90;99.90;;;;;;5053776;28;20447;-46
2023/05/03 08:33:28;;;;;;;13.00;11.43;;;16.00;99.90;;;;;;5053624;28;20508;-44
2023/05/03 08:35:54;;;;;;;11.17;10.07;;;16.30;99.90;;;;;;5052117;28;20911;-45
2023/05/03 08:38:19;;;;;;;12.30;11.20;;;16.80;99.90;;;;;;5052295;28;20373;-45
2023/05/03 08:40:47;;;;;;;13.43;12.10;;;17.00;41.90;;;;;;5053506;28;20178;-46
2023/05/03 08:43:14;;;;;;;11.20;10.20;;;17.30;31.50;;;;;;5037343;28;20205;-45
2023/05/03 08:45:40;;;;;;;13.80;12.47;;;17.50;48.50;;;;;;5055398;28;20431;-45
2023/05/03 08:48:06;;;;;;;11.03;9.93;;;17.90;29.90;;;;;;5054285;28;20412;-47
2023/05/03 08:50:35;;;;;;;11.57;10.67;;;18.30;10.80;;;;;;5052486;28;20275;-45
2023/05/03 08:53:02;;;;;;;14.73;13.40;;;18.70;1.00;;;;;;5055749;28;20209;-45
2023/05/03 08:55:27;;;;;;;13.23;11.53;;;18.80;1.00;;;;;;5050741;28;20703;-44
2023/05/03 08:57:53;;;;;;;13.10;11.90;;;18.90;1.00;;;;;;5051332;28;20426;-46
2023/05/03 09:00:21;;;;;;;12.23;11.13;;;18.80;1.00;;;;;;5049774;28;20182;-45
2023/05/03 09:02:50;;;;;;;12.53;11.33;;;18.80;1.00;;;;;;5049269;28;20181;-45
2023/05/03 09:05:16;;;;;;;12.07;10.97;;;18.70;1.00;;;;;;5033545;28;20943;-47
2023/05/03 09:08:08;;;;;;;10.03;9.13;;;18.90;1.00;;;;;;5051554;28;20416;-48
2023/05/03 09:10:39;;;;;;;10.83;9.83;;;19.10;1.00;;;;;;5048061;28;20649;-46
2023/05/03 09:13:06;;;;;;;11.60;10.60;;;19.10;1.00;;;;;;5052505;28;20714;-48
2023/05/03 09:15:32;;;;;;;13.33;10.00;;;19.10;1.00;;;;;;5052504;28;21015;-47
2023/05/03 09:18:07;;;;;;;11.03;9.93;;;19.40;1.00;;;;;;5052175;28;20429;-49
2023/05/03 09:20:35;;;;;;;9.33;7.87;;;19.40;1.00;;;;;;5051256;28;20424;-46
2023/05/03 09:23:01;;;;;;;11.20;10.10;;;19.90;1.00;;;;;;5051776;28;20481;-47
2023/05/03 09:25:59;;;;;;;10.50;9.60;;;20.40;1.00;;;;;;5052722;28;20502;-48
2023/05/03 09:28:26;;;;;;;10.07;9.17;;;20.50;1.00;;;;;;5018983;28;20480;-46
2023/05/03 09:31:05;;;;;;;10.80;9.80;;;20.60;1.00;;;;;;5041470;28;20428;-46
2023/05/03 09:33:31;;;;;;;9.53;8.53;;;20.60;1.00;;;;;;5033655;28;20813;-48
2023/05/03 09:35:58;;;;;;;9.40;8.43;;;20.70;1.00;;;;;;5033017;28;20849;-47
2023/05/03 09:38:31;;;;;;;9.17;8.27;;;21.00;1.00;;;;;;5032363;28;20916;-47
2023/05/03 09:40:57;;;;;;;10.20;9.30;;;21.50;1.00;;;;;;5037635;28;20435;-47
2023/05/03 09:43:23;;;;;;;9.30;8.40;;;22.00;1.00;;;;;;5037990;28;20463;-47
2023/05/03 09:45:49;;;;;;;9.73;8.83;;;22.00;1.00;;;;;;5032646;28;20427;-47
2023/05/03 09:48:15;;;;;;;10.93;9.90;;;22.30;1.00;;;;;;5051041;28;20408;-50
2023/05/03 09:50:42;;;;;;;8.73;7.90;;;22.20;1.00;;;;;;5052962;28;20744;-49
2023/05/03 09:53:08;;;;;;;12.23;10.90;;;21.90;1.00;;;;;;5035491;28;20194;-48
2023/05/03 09:55:35;;;;;;;11.67;10.37;;;21.90;1.00;;;;;;5029091;28;20649;-48
2023/05/03 09:58:07;;;;;;;8.13;7.43;;;22.10;1.00;;;;;;5029011;28;20413;-48
2023/05/03 10:00:41;;;;;;;9.20;8.40;;;22.10;1.00;;;;;;5029649;28;20425;-46
2023/05/03 10:03:09;;;;;;;8.23;7.43;;;22.00;1.00;;;;;;5030228;28;20453;-45
2023/05/03 10:05:46;;;;;;;8.17;7.47;;;22.00;1.00;;;;;;5029522;28;20421;-45
2023/05/03 10:08:19;;;;;;;7.60;6.90;;;22.20;1.00;;;;;;5031834;28;20409;-45
2023/05/03 10:10:45;;;;;;;9.30;8.50;;;22.20;1.00;;;;;;5031745;28;20507;-46
2023/05/03 10:13:11;;;;;;;8.70;8.00;;;22.50;1.00;;;;;;5027622;28;20512;-47
2023/05/03 10:15:38;;;;;;;10.10;9.07;;;22.70;1.00;;;;;;5028474;28;20838;-46
2023/05/03 10:18:06;;;;;;;8.13;7.53;;;23.00;1.00;;;;;;5029283;28;20542;-46
2023/05/03 10:20:39;;;;;;;7.37;6.77;;;23.40;1.00;;;;;;5034158;28;20436;-45
2023/05/03 10:23:05;;;;;;;9.67;8.80;;;23.40;1.00;;;;;;5032059;28;20730;-45
2023/05/03 10:25:31;;;;;;;7.80;7.10;;;23.20;1.00;;;;;;5034618;28;20428;-45
2023/05/03 10:28:08;;;;;;;9.20;8.40;;;22.50;1.00;;;;;;5035073;28;20170;-44
2023/05/03 10:30:38;;;;;;;10.23;9.23;;;22.20;1.00;;;;;;5034849;28;20428;-45
2023/05/03 10:33:13;;;;;;;8.37;7.57;;;21.70;1.00;;;;;;5036368;28;20607;-45
2023/05/03 10:35:45;;;;;;;9.60;6.70;;;22.00;1.00;;;;;;5034221;28;20771;-44
2023/05/03 10:38:15;;;;;;;7.40;6.80;;;22.50;1.00;;;;;;5034785;28;20515;-46
2023/05/03 10:40:42;;;;;;;7.07;6.43;;;22.90;1.00;;;;;;5036266;28;20788;-44
2023/05/03 10:43:28;;;;;;;9.23;8.33;;;23.00;1.00;;;;;;5036152;28;20479;-47
2023/05/03 10:45:57;;;;;;;9.00;8.30;;;23.00;1.00;;;;;;5033690;28;20429;-46
2023/05/03 10:48:24;;;;;;;7.87;7.07;;;22.90;1.00;;;;;;5031539;28;20719;-45
2023/05/03 10:50:50;;;;;;;8.97;8.07;;;23.20;1.00;;;;;;5031653;28;20520;-47
2023/05/03 10:53:35;;;;;;;9.27;7.43;;;24.00;1.00;;;;;;5031588;28;20443;-46
2023/05/03 10:56:11;;;;;;;8.00;7.20;;;24.20;1.00;;;;;;5033520;28;20698;-45
2023/05/03 10:58:46;;;;;;;6.50;5.90;;;24.20;1.00;;;;;;5033784;28;20512;-48
2023/05/03 11:01:15;;;;;;;7.70;7.00;;;24.60;1.00;;;;;;5032509;28;20703;-49
2023/05/03 11:03:49;;;;;;;7.80;6.80;;;24.80;1.00;;;;;;5032576;28;20493;-46
2023/05/03 11:06:30;;;;;;;7.97;6.80;;;24.70;1.00;;;;;;5034803;28;20428;-47
2023/05/03 11:08:55;;;;;;;9.50;8.20;;;25.10;1.00;;;;;;5033079;28;20409;-44
2023/05/03 11:11:21;;;;;;;7.40;6.77;;;25.10;1.00;;;;;;5032326;28;20427;-43
2023/05/03 11:13:49;;;;;;;7.50;6.87;;;24.30;1.00;;;;;;5033369;28;20194;-45
2023/05/03 11:16:15;;;;;;;9.30;8.00;;;23.80;1.00;;;;;;5033382;28;20179;-44
2023/05/03 11:18:41;;;;;;;7.60;6.90;;;23.20;1.00;;;;;;5018445;28;20455;-46
2023/05/03 11:21:06;;;;;;;7.97;7.27;;;23.00;1.00;;;;;;5032904;28;20178;-43
2023/05/03 11:23:32;;;;;;;6.00;5.50;;;23.50;1.00;;;;;;5033136;28;20198;-47
2023/05/03 11:25:58;;;;;;;7.33;6.73;;;24.30;1.00;;;;;;5031601;28;20533;-44
2023/05/03 11:28:24;;;;;;;7.10;6.50;;;24.40;1.00;;;;;;5030185;28;20226;-44
2023/05/03 11:30:50;;;;;;;7.17;6.47;;;24.40;1.00;;;;;;5030030;28;20182;-46
2023/05/03 11:33:16;;;;;;;8.77;7.97;;;24.30;1.00;;;;;;5029536;28;20471;-44
2023/05/03 11:35:42;;;;;;;10.00;7.27;;;23.70;1.00;;;;;;5029328;28;20564;-45
2023/05/03 11:38:09;;;;;;;6.83;6.17;;;23.20;1.00;;;;;;5031785;28;20174;-44
2023/05/03 11:40:35;;;;;;;7.40;6.70;;;23.60;1.00;;;;;;5029904;28;20531;-45
2023/05/03 11:43:01;;;;;;;7.83;7.03;;;23.70;1.00;;;;;;5032322;28;20476;-44
2023/05/03 11:45:47;;;;;;;8.67;7.23;;;23.70;1.00;;;;;;5031314;28;20730;-46
2023/05/03 11:48:13;;;;;;;7.77;7.00;;;23.90;1.00;;;;;;5032346;28;20406;-44
2023/05/03 11:50:49;;;;;;;8.37;7.60;;;23.60;1.00;;;;;;5012161;28;21029;-46
2023/05/03 11:53:16;;;;;;;7.63;6.83;;;22.90;1.00;;;;;;5030602;28;20516;-44
2023/05/03 11:55:45;;;;;;;7.27;6.60;;;22.50;1.00;;;;;;5030353;28;20471;-43
2023/05/03 11:58:15;;;;;;;8.47;6.20;;;22.10;1.00;;;;;;5031227;28;20432;-46
2023/05/03 12:00:48;;;;;;;6.50;5.90;;;22.40;1.00;;;;;;5033095;28;20425;-45
2023/05/03 12:03:31;;;;;;;6.23;5.60;;;23.20;1.00;;;;;;5032824;28;20738;-46
2023/05/03 12:05:58;;;;;;;6.40;5.87;;;24.30;1.00;;;;;;5031712;28;20421;-45
2023/05/03 12:08:31;;;;;;;5.33;4.93;;;24.70;1.00;;;;;;5030280;28;20508;-45
2023/05/03 12:10:57;;;;;;;6.20;5.60;;;24.60;1.00;;;;;;5032671;28;20954;-46
2023/05/03 12:13:36;;;;;;;6.47;5.87;;;24.30;1.00;;;;;;5030332;28;20414;-47
2023/05/03 12:16:04;;;;;;;5.90;4.73;;;24.50;1.00;;;;;;5031215;28;20277;-44
2023/05/03 12:18:46;;;;;;;5.90;5.37;;;24.30;1.00;;;;;;5033490;28;20456;-44
2023/05/03 12:21:14;;;;;;;5.87;5.37;;;23.90;1.00;;;;;;5034247;28;20524;-43
2023/05/03 12:23:40;;;;;;;6.10;5.50;;;23.80;1.00;;;;;;5034414;28;20461;-45
2023/05/03 12:26:06;;;;;;;6.27;5.73;;;24.00;1.00;;;;;;5033829;28;20441;-46
2023/05/03 12:28:32;;;;;;;6.97;6.10;;;24.50;1.00;;;;;;5029803;28;20519;-47
2023/05/03 12:31:01;;;;;;;5.10;4.70;;;25.10;1.00;;;;;;5031315;28;20532;-49
2023/05/03 12:33:26;;;;;;;5.70;5.20;;;25.60;1.00;;;;;;5033265;28;20429;-46
2023/05/03 12:35:52;;;;;;;5.57;5.10;;;25.40;1.00;;;;;;5029990;28;20513;-47
2023/05/03 12:38:18;;;;;;;5.97;5.47;;;25.40;1.00;;;;;;5029298;28;20201;-47
2023/05/03 12:40:44;;;;;;;6.50;5.90;;;25.30;1.00;;;;;;5032469;28;20178;-45
2023/05/03 12:43:10;;;;;;;6.10;5.60;;;25.20;1.00;;;;;;5032335;28;20206;-47
2023/05/03 12:45:36;;;;;;;6.87;6.37;;;24.90;1.00;;;;;;5031871;28;20432;-46
2023/05/03 12:48:02;;;;;;;5.60;5.10;;;24.60;1.00;;;;;;5031833;28;20549;-44
2023/05/03 12:50:27;;;;;;;5.43;4.63;;;25.00;1.00;;;;;;5031248;28;20212;-45